createdAt,value
2023-04-13T00:04:42.936Z,99378.59
2023-04-13T00:09:47.472Z,99375.05
2023-04-13T00:14:50.969Z,99377.51
2023-04-13T00:19:53.887Z,99374.03
2023-04-13T00:24:55.607Z,99374.48
2023-04-13T00:29:57.784Z,99377.09
2023-04-13T00:34:59.921Z,99376.15
2023-04-13T00:40:01.427Z,99373.97
2023-04-13T00:45:03.088Z,99371.75
2023-04-13T00:50:06.626Z,99369.02
2023-04-13T00:55:08.706Z,99366.95
2023-04-13T01:00:10.777Z,99360.55
2023-04-13T01:05:15.656Z,99354.87
2023-04-13T01:10:39.387Z,99346.69
2023-04-13T01:15:47.158Z,99346.89
2023-04-13T01:20:49.271Z,99347.98
2023-04-13T01:25:57.685Z,99352.64
2023-04-13T01:31:05.699Z,99358.15
2023-04-13T01:36:10.441Z,99358.73
2023-04-13T01:41:11.957Z,99355.44
2023-04-13T01:46:14.425Z,99355.65
2023-04-13T01:51:19.449Z,99355.19
2023-04-13T01:56:23.249Z,99352.23
2023-04-13T02:01:25.919Z,99343.06
2023-04-13T02:06:27.604Z,99341.81
2023-04-13T02:11:29.072Z,99338.33
2023-04-13T02:16:30.839Z,99332.46
2023-04-13T02:21:32.441Z,99340.70
2023-04-13T02:26:33.929Z,99338.90
2023-04-13T02:31:35.618Z,99342.23
2023-04-13T02:36:38.969Z,99343.00
2023-04-13T02:41:43.120Z,99340.77
2023-04-13T02:46:45.199Z,99341.66
2023-04-13T02:51:47.095Z,99344.59
2023-04-13T02:56:49.177Z,99354.27
2023-04-13T03:01:50.803Z,99361.42
2023-04-13T03:06:54.494Z,99364.77
2023-04-13T03:11:56.811Z,99363.10
2023-04-13T03:16:58.564Z,99369.09
2023-04-13T03:22:00.427Z,99380.34
2023-04-13T03:27:02.874Z,99385.41
2023-04-13T03:32:04.563Z,99389.02
2023-04-13T03:37:06.405Z,99393.65
2023-04-13T03:42:07.916Z,99398.31
2023-04-13T03:47:09.796Z,99394.46
2023-04-13T03:52:11.898Z,99399.44
2023-04-13T03:57:13.482Z,99397.70
2023-04-13T04:02:15.073Z,99409.59
2023-04-13T04:07:16.970Z,99423.48
2023-04-13T04:12:18.626Z,99432.80
2023-04-13T04:17:20.097Z,99438.14
2023-04-13T04:22:21.598Z,99441.22
2023-04-13T04:27:26.295Z,99444.23
2023-04-13T04:32:27.877Z,99444.56
2023-04-13T04:37:30.434Z,99445.77
2023-04-13T04:42:32.516Z,99443.40
2023-04-13T04:47:42.225Z,99441.52
2023-04-13T04:52:43.863Z,99435.67
2023-04-13T04:57:46.240Z,99436.33
2023-04-13T05:02:50.198Z,99433.98
2023-04-13T05:07:52.508Z,99438.25
2023-04-13T05:12:54.877Z,99445.58
2023-04-13T05:17:56.829Z,99448.01
2023-04-13T05:22:59.680Z,99442.63
2023-04-13T05:28:01.234Z,99440.78
2023-04-13T05:33:06.606Z,99430.05
2023-04-13T05:38:08.233Z,99422.37
2023-04-13T05:43:10.098Z,99420.81
2023-04-13T05:48:11.753Z,99429.81
2023-04-13T05:53:14.047Z,99436.63
2023-04-13T05:58:15.762Z,99438.01
2023-04-13T06:03:18.029Z,99446.27
2023-04-13T06:08:21.641Z,99443.31
2023-04-13T06:13:23.137Z,99431.39
2023-04-13T06:18:28.427Z,99428.23
2023-04-13T06:23:29.951Z,99423.86
2023-04-13T06:28:32.220Z,99421.81
2023-04-13T06:33:33.844Z,99414.98
2023-04-13T06:38:35.345Z,99412.46
2023-04-13T06:43:37.424Z,99409.46
2023-04-13T06:48:38.917Z,99406.85
2023-04-13T06:53:41.361Z,99399.95
2023-04-13T06:58:42.881Z,99408.61
2023-04-13T07:03:44.558Z,99407.23
2023-04-13T07:08:46.578Z,99403.98
2023-04-13T07:13:48.309Z,99402.23
2023-04-13T07:18:49.854Z,99394.56
2023-04-13T07:23:51.323Z,99399.81
2023-04-13T07:28:53.049Z,99394.51
2023-04-13T07:33:54.769Z,99393.84
2023-04-13T07:38:58.626Z,99399.36
2023-04-13T07:44:00.420Z,99406.85
2023-04-13T07:49:02.196Z,99416.43
2023-04-13T07:54:03.943Z,99421.69
2023-04-13T07:59:05.536Z,99421.80
2023-04-13T08:04:07.169Z,99418.35
2023-04-13T08:09:09.602Z,99415.77
2023-04-13T08:14:11.884Z,99414.33
2023-04-13T08:19:13.374Z,99413.41
2023-04-13T08:24:14.873Z,99407.04
2023-04-13T08:29:16.456Z,99401.97
2023-04-13T08:34:18.591Z,99400.95
2023-04-13T08:39:21.264Z,99399.10
2023-04-13T08:44:23.637Z,99395.02
2023-04-13T08:49:26.140Z,99397.70
2023-04-13T08:54:28.551Z,99393.45
2023-04-13T08:59:30.923Z,99392.78
2023-04-13T09:04:36.368Z,99394.56
2023-04-13T09:09:42.752Z,99394.98
2023-04-13T09:14:44.228Z,99402.48
2023-04-13T09:19:45.862Z,99395.27
2023-04-13T09:24:48.692Z,99388.70
2023-04-13T09:29:52.248Z,99387.12
2023-04-13T09:34:59.200Z,99388.83
2023-04-13T09:40:13.630Z,99386.48
2023-04-13T09:45:15.346Z,99385.84
2023-04-13T09:50:28.215Z,99384.27
2023-04-13T09:55:32.751Z,99380.82
2023-04-13T10:00:38.422Z,99379.88
2023-04-13T10:05:58.069Z,99380.77
2023-04-13T10:11:02.447Z,99384.84
2023-04-13T10:16:32.335Z,99382.95
2023-04-13T10:21:39.561Z,99392.77
2023-04-13T10:26:44.596Z,99390.94
2023-04-13T10:31:48.332Z,99393.42
2023-04-13T10:36:52.328Z,99393.03
2023-04-13T10:42:00.807Z,99393.34
2023-04-13T10:47:06.236Z,99393.80
2023-04-13T10:52:10.653Z,99391.66
2023-04-13T10:57:15.002Z,99391.01
2023-04-13T11:02:18.139Z,99381.23
2023-04-13T11:07:21.900Z,99379.95
2023-04-13T11:12:23.436Z,99373.77
2023-04-13T11:17:25.228Z,99371.88
2023-04-13T11:22:29.026Z,99370.12
2023-04-13T11:27:30.636Z,99371.21
2023-04-13T11:32:39.423Z,99372.77
2023-04-13T11:37:49.564Z,99377.54
2023-04-13T11:42:55.969Z,99371.41
2023-04-13T11:47:58.538Z,99370.39
2023-04-13T11:53:00.677Z,99368.15
2023-04-13T11:58:18.754Z,99360.47
2023-04-13T12:08:26.012Z,99363.48
2023-04-13T12:13:36.220Z,99362.70
2023-04-13T12:18:47.453Z,99364.68
2023-04-13T12:24:01.610Z,99367.92
2023-04-13T12:29:05.425Z,99365.02
2023-04-13T12:34:07.895Z,99361.23
2023-04-13T12:39:09.679Z,99363.98
2023-04-13T12:44:11.499Z,99364.93
2023-04-13T12:49:12.989Z,99360.98
2023-04-13T12:54:14.775Z,99362.55
2023-04-13T12:59:16.802Z,99361.02
2023-04-13T13:04:18.388Z,99356.56
2023-04-13T13:09:20.812Z,99351.06
2023-04-13T13:14:22.426Z,99352.86
2023-04-13T13:19:23.940Z,99351.09
2023-04-13T13:24:25.488Z,99339.71
2023-04-13T13:29:30.938Z,99340.04
2023-04-13T13:34:32.600Z,99342.35
2023-04-13T13:39:34.244Z,99334.27
2023-04-13T13:44:37.007Z,99336.33
2023-04-13T13:49:39.042Z,99338.80
2023-04-13T13:54:40.568Z,99339.48
2023-04-13T13:59:42.791Z,99332.21
2023-04-13T14:04:44.358Z,99329.73
2023-04-13T14:09:46.343Z,99326.95
2023-04-13T14:14:47.885Z,99328.43
2023-04-13T14:19:49.348Z,99328.55
2023-04-13T14:24:56.680Z,99326.29
2023-04-13T14:29:58.181Z,99323.52
2023-04-13T14:35:00.596Z,99330.14
2023-04-13T14:40:08.848Z,99334.81
2023-04-13T14:45:12.431Z,99338.73
2023-04-13T14:50:15.468Z,99339.09
2023-04-13T14:55:17.341Z,99343.04
2023-04-13T15:00:32.602Z,99340.61
2023-04-13T15:05:46.377Z,99341.86
2023-04-13T15:10:48.019Z,99342.71
2023-04-13T15:15:52.009Z,99347.56
2023-04-13T15:20:53.738Z,99351.58
2023-04-13T15:25:55.418Z,99354.00
2023-04-13T15:30:57.032Z,99358.68
2023-04-13T15:35:59.074Z,99359.88
2023-04-13T15:41:00.628Z,99363.23
2023-04-13T15:46:03.661Z,99361.90
2023-04-13T15:51:05.200Z,99366.17
2023-04-13T15:56:10.295Z,99368.94
2023-04-13T16:01:13.138Z,99373.14
2023-04-13T16:06:14.712Z,99373.52
2023-04-13T16:11:16.218Z,99373.35
2023-04-13T16:16:18.434Z,99375.02
2023-04-13T16:21:20.128Z,99376.17
2023-04-13T16:26:22.724Z,99382.55
2023-04-13T16:31:24.320Z,99386.00
2023-04-13T16:36:27.215Z,99389.39
2023-04-13T16:41:28.626Z,99390.80
2023-04-13T16:46:30.506Z,99393.01
2023-04-13T16:51:32.236Z,99401.61
2023-04-13T16:56:34.239Z,99403.98
2023-04-13T17:01:39.246Z,99402.14
2023-04-13T17:06:41.593Z,99409.94
2023-04-13T17:11:43.117Z,99412.57
2023-04-13T17:16:44.691Z,99424.35
2023-04-13T17:21:46.282Z,99425.49
2023-04-13T17:26:48.430Z,99435.11
2023-04-13T17:31:50.418Z,99436.13
2023-04-13T17:36:52.641Z,99439.88
2023-04-13T17:41:54.233Z,99452.33
2023-04-13T17:46:56.033Z,99457.65
2023-04-13T17:51:59.802Z,99464.81
2023-04-13T17:57:01.785Z,99473.44
2023-04-13T18:02:03.401Z,99477.58
2023-04-13T18:07:05.195Z,99480.76
2023-04-13T18:12:07.141Z,99488.35
2023-04-13T18:17:08.740Z,99487.55
2023-04-13T18:22:10.309Z,99488.61
2023-04-13T18:27:12.231Z,99502.50
2023-04-13T18:32:17.045Z,99505.89
2023-04-13T18:37:18.830Z,99512.58
2023-04-13T18:42:20.392Z,99521.21
2023-04-13T18:47:24.198Z,99526.50
2023-04-13T18:52:26.465Z,99529.27
2023-04-13T18:57:27.926Z,99534.77
2023-04-13T19:02:29.626Z,99534.35
2023-04-13T19:07:31.340Z,99534.44
2023-04-13T19:12:33.009Z,99536.98
2023-04-13T19:17:34.677Z,99537.75
2023-04-13T19:22:37.038Z,99534.71
2023-04-13T19:27:38.594Z,99533.20
2023-04-13T19:32:43.682Z,99538.67
2023-04-13T19:37:45.498Z,99539.10
2023-04-13T19:42:47.076Z,99540.83
2023-04-13T19:47:48.951Z,99547.70
2023-04-13T19:52:52.844Z,99546.66
2023-04-13T19:57:54.338Z,99543.69
2023-04-13T20:03:03.454Z,99545.35
2023-04-13T20:08:05.213Z,99542.34
2023-04-13T20:13:06.734Z,99545.35
2023-04-13T20:18:09.056Z,99546.61
2023-04-13T20:23:11.298Z,99554.98
2023-04-13T20:28:12.873Z,99554.84
2023-04-13T20:33:14.546Z,99548.57
2023-04-13T20:38:16.080Z,99552.56
2023-04-13T20:43:20.489Z,99556.52
2023-04-13T20:53:30.233Z,99558.30
2023-04-13T20:58:34.841Z,99561.27
2023-04-13T21:03:36.406Z,99566.00
2023-04-13T21:08:38.028Z,99565.14
2023-04-13T21:13:39.593Z,99570.70
2023-04-13T21:18:41.939Z,99577.41
2023-04-13T21:23:43.674Z,99577.54
2023-04-13T21:28:45.128Z,99581.75
2023-04-13T21:33:46.657Z,99579.98
2023-04-13T21:38:48.349Z,99578.40
2023-04-13T21:43:49.913Z,99577.73
2023-04-13T21:48:52.136Z,99581.09
2023-04-13T21:53:53.676Z,99590.00
2023-04-13T21:58:55.308Z,99591.02
2023-04-13T22:03:56.973Z,99592.66
2023-04-13T22:08:58.935Z,99588.96
2023-04-13T22:14:00.935Z,99592.63
2023-04-13T22:19:03.109Z,99592.49
2023-04-13T22:24:04.955Z,99596.81
2023-04-13T22:29:07.173Z,99597.73
2023-04-13T22:34:08.648Z,99596.09
2023-04-13T22:39:10.140Z,99596.58
2023-04-13T22:44:11.691Z,99593.61
2023-04-13T22:49:13.263Z,99592.30
2023-04-13T22:54:14.827Z,99587.41
2023-04-13T22:59:16.713Z,99590.79
2023-04-13T23:04:18.235Z,99590.02
2023-04-13T23:09:19.822Z,99587.59
2023-04-13T23:14:24.629Z,99587.16
2023-04-13T23:19:26.221Z,99590.85
2023-04-13T23:24:28.523Z,99595.91
2023-04-13T23:29:30.120Z,99592.43
2023-04-13T23:34:32.168Z,99588.48
2023-04-13T23:39:34.436Z,99588.59
2023-04-13T23:44:36.044Z,99587.69
2023-04-13T23:49:37.726Z,99589.16
2023-04-13T23:54:39.326Z,99590.13
2023-04-13T23:59:40.922Z,99593.55
